Time;durP1;ratioP1;P1;durP2;ratioP2;P2;SDS_P1;SDS_P2;PMS_P1;PMS_P2;Temp;Humidity;BMP_temperature;BMP_pressure;BME280_temperature;BME280_humidity;BME280_pressure;Samples;Min_cycle;Max_cycle;Signal;HPM_P1;HPM_P2
2022/10/31 00:00:25;;;;;;;94.95;36.53;;;;;;;;;;5005955;28;20038;-39
2022/10/31 00:02:51;;;;;;;99.15;38.83;;;;;;;;;;5006178;28;20042;-39
2022/10/31 00:05:18;;;;;;;87.82;33.40;;;;;;;;;;5006388;28;20050;-39
2022/10/31 00:07:45;;;;;;;90.90;37.75;;;;;;;;;;5006876;28;20045;-39
2022/10/31 00:10:11;;;;;;;100.57;38.92;;;;;;;;;;5008343;28;20778;-39
2022/10/31 00:12:38;;;;;;;92.90;35.20;;;;;;;;;;5004619;28;20077;-38
2022/10/31 00:15:04;;;;;;;86.22;37.28;;;;;;;;;;5005577;28;20537;-40
2022/10/31 00:17:31;;;;;;;87.75;39.53;;;;;;;;;;5006014;28;20073;-40
2022/10/31 00:19:57;;;;;;;89.78;34.08;;;;;;;;;;5000297;28;20038;-38
2022/10/31 00:22:24;;;;;;;98.00;31.75;;;;;;;;;;5005627;28;20045;-40
2022/10/31 00:24:51;;;;;;;76.18;35.03;;;;;;;;;;5005168;28;20065;-39
2022/10/31 00:27:17;;;;;;;77.35;32.58;;;;;;;;;;5005444;28;20038;-42
2022/10/31 00:29:44;;;;;;;80.53;32.65;;;;;;;;;;5004974;28;20049;-39
2022/10/31 00:32:11;;;;;;;81.68;33.15;;;;;;;;;;5008408;28;20092;-39
2022/10/31 00:34:38;;;;;;;96.78;36.45;;;;;;;;;;5007774;28;20046;-39
2022/10/31 00:37:04;;;;;;;72.60;34.70;;;;;;;;;;5007195;28;20038;-39
2022/10/31 00:39:31;;;;;;;72.78;34.70;;;;;;;;;;5005934;28;20034;-41
2022/10/31 00:41:57;;;;;;;104.10;36.60;;;;;;;;;;5004940;28;20033;-38
2022/10/31 00:44:24;;;;;;;85.43;34.45;;;;;;;;;;5005451;28;20065;-39
2022/10/31 00:46:51;;;;;;;77.30;31.95;;;;;;;;;;5006499;28;20034;-39
2022/10/31 00:49:20;;;;;;;76.43;32.10;;;;;;;;;;5010391;28;20044;-39
2022/10/31 00:51:47;;;;;;;86.88;33.78;;;;;;;;;;5007763;28;20038;-38
2022/10/31 00:54:13;;;;;;;73.82;29.02;;;;;;;;;;4993339;28;20112;-39
2022/10/31 00:56:40;;;;;;;73.82;30.23;;;;;;;;;;5009851;28;20125;-38
2022/10/31 00:59:07;;;;;;;70.13;29.20;;;;;;;;;;5007433;28;20046;-39
2022/10/31 01:01:34;;;;;;;76.50;29.85;;;;;;;;;;4991682;28;20076;-38
2022/10/31 01:04:01;;;;;;;83.75;30.75;;;;;;;;;;5040825;28;20077;-38
2022/10/31 01:06:27;;;;;;;72.72;32.88;;;;;;;;;;5003990;28;20038;-38
2022/10/31 01:08:55;;;;;;;68.15;30.27;;;;;;;;;;5004628;28;20068;-38
2022/10/31 01:11:22;;;;;;;87.15;33.88;;;;;;;;;;5004448;28;20122;-41
2022/10/31 01:13:51;;;;;;;78.60;29.40;;;;;;;;;;5005775;28;20057;-39
2022/10/31 01:16:19;;;;;;;65.78;28.10;;;;;;;;;;5032414;28;20046;-40
2022/10/31 01:18:45;;;;;;;72.10;30.40;;;;;;;;;;5004857;28;20044;-41
2022/10/31 01:21:19;;;;;;;68.40;27.08;;;;;;;;;;5007569;28;20427;-40
2022/10/31 01:23:47;;;;;;;71.93;28.38;;;;;;;;;;5006343;28;20049;-40
2022/10/31 01:26:15;;;;;;;93.22;30.02;;;;;;;;;;5002853;28;20042;-39
2022/10/31 01:28:45;;;;;;;70.40;28.13;;;;;;;;;;5007237;28;20037;-40
2022/10/31 01:31:13;;;;;;;62.28;25.67;;;;;;;;;;5006502;28;20068;-40
2022/10/31 01:33:40;;;;;;;66.13;28.38;;;;;;;;;;4989935;28;20125;-39
2022/10/31 01:36:15;;;;;;;73.25;27.17;;;;;;;;;;4998148;28;20041;-39
2022/10/31 01:38:42;;;;;;;66.55;27.05;;;;;;;;;;5006698;28;20057;-39
2022/10/31 01:41:10;;;;;;;53.90;24.17;;;;;;;;;;5004407;28;20061;-40
2022/10/31 01:43:52;;;;;;;70.97;26.83;;;;;;;;;;5005930;28;20042;-38
2022/10/31 01:46:24;;;;;;;83.55;29.13;;;;;;;;;;5006929;28;20069;-39
2022/10/31 01:48:52;;;;;;;67.32;30.55;;;;;;;;;;4988800;28;20042;-39
2022/10/31 01:51:20;;;;;;;86.72;28.98;;;;;;;;;;5014560;28;20052;-40
2022/10/31 01:53:47;;;;;;;65.80;27.02;;;;;;;;;;5006030;28;20038;-39
2022/10/31 01:56:15;;;;;;;73.90;28.63;;;;;;;;;;5003910;28;20046;-40
2022/10/31 01:58:42;;;;;;;84.75;28.23;;;;;;;;;;4989572;28;20038;-39
2022/10/31 02:01:09;;;;;;;66.70;26.55;;;;;;;;;;5006703;28;20041;-39
2022/10/31 02:03:35;;;;;;;57.47;24.27;;;;;;;;;;5004181;28;20057;-39
2022/10/31 02:09:05;;;;;;;50.75;23.15;;;;;;;;;;4988181;28;20049;-41
2022/10/31 02:11:34;;;;;;;62.55;25.80;;;;;;;;;;4989116;28;20057;-42
2022/10/31 02:14:01;;;;;;;52.13;24.27;;;;;;;;;;4988751;28;20065;-42
2022/10/31 02:16:27;;;;;;;70.35;26.65;;;;;;;;;;4988479;28;20561;-42
2022/10/31 02:18:54;;;;;;;80.65;28.15;;;;;;;;;;4988970;28;20465;-42
2022/10/31 02:21:27;;;;;;;72.10;25.52;;;;;;;;;;4987381;28;20066;-42
2022/10/31 02:24:26;;;;;;;129.63;34.22;;;;;;;;;;4989037;28;20078;-42
2022/10/31 02:26:58;;;;;;;117.03;35.35;;;;;;;;;;4949248;28;20055;-42
2022/10/31 02:29:33;;;;;;;136.50;37.55;;;;;;;;;;4935503;29;20059;-42
2022/10/31 02:32:00;;;;;;;85.50;32.83;;;;;;;;;;4951180;28;20054;-42
2022/10/31 02:34:29;;;;;;;98.22;31.60;;;;;;;;;;4951710;28;20043;-42
2022/10/31 02:37:04;;;;;;;111.93;37.45;;;;;;;;;;4954784;28;20542;-42
2022/10/31 02:39:53;;;;;;;148.05;40.05;;;;;;;;;;4954266;28;20130;-42
2022/10/31 02:42:50;;;;;;;120.88;34.67;;;;;;;;;;4953690;28;20051;-42
2022/10/31 02:45:22;;;;;;;191.50;46.45;;;;;;;;;;4950765;28;20079;-42
2022/10/31 02:47:50;;;;;;;188.80;44.67;;;;;;;;;;4954229;28;20051;-42
2022/10/31 02:50:22;;;;;;;130.18;40.35;;;;;;;;;;4954291;28;20058;-42
2022/10/31 02:52:52;;;;;;;128.35;41.75;;;;;;;;;;4954215;28;20043;-42
2022/10/31 02:55:24;;;;;;;112.38;37.03;;;;;;;;;;4938752;29;20055;-42
2022/10/31 02:58:01;;;;;;;104.95;37.97;;;;;;;;;;4938443;28;20459;-41
2022/10/31 03:00:31;;;;;;;123.70;37.70;;;;;;;;;;4953611;28;20082;-42
2022/10/31 03:03:11;;;;;;;94.47;33.03;;;;;;;;;;4978495;28;20141;-42
2022/10/31 03:05:41;;;;;;;89.75;29.35;;;;;;;;;;4990350;28;20047;-42
2022/10/31 03:08:22;;;;;;;93.95;31.02;;;;;;;;;;4991465;28;20049;-42
2022/10/31 03:10:56;;;;;;;82.32;30.10;;;;;;;;;;4990943;28;20054;-42
2022/10/31 03:13:33;;;;;;;91.47;33.03;;;;;;;;;;4991334;28;20101;-42
2022/10/31 03:16:06;;;;;;;83.30;33.50;;;;;;;;;;4974844;28;20053;-42
2022/10/31 03:18:38;;;;;;;101.97;33.60;;;;;;;;;;4992031;28;20365;-42
2022/10/31 03:21:16;;;;;;;117.82;38.42;;;;;;;;;;4991507;28;20038;-42
2022/10/31 03:23:44;;;;;;;102.82;35.97;;;;;;;;;;4974181;28;20459;-41
2022/10/31 03:26:18;;;;;;;109.35;34.50;;;;;;;;;;4990925;28;20116;-41
2022/10/31 03:28:51;;;;;;;98.65;33.22;;;;;;;;;;4986492;28;20043;-42
2022/10/31 03:31:19;;;;;;;116.88;35.28;;;;;;;;;;4983731;28;20457;-42
2022/10/31 03:33:47;;;;;;;109.88;36.40;;;;;;;;;;4990406;28;20517;-42
2022/10/31 03:36:15;;;;;;;111.18;38.30;;;;;;;;;;4991662;28;20144;-42
2022/10/31 03:38:45;;;;;;;108.88;34.42;;;;;;;;;;4991584;28;20046;-42
2022/10/31 03:41:21;;;;;;;95.88;35.17;;;;;;;;;;4986180;28;20051;-42
2022/10/31 03:43:51;;;;;;;107.90;34.85;;;;;;;;;;4983881;28;20034;-42
2022/10/31 03:46:17;;;;;;;138.55;39.95;;;;;;;;;;4990474;28;20077;-42
2022/10/31 03:48:44;;;;;;;95.38;34.42;;;;;;;;;;4991263;28;20035;-42
2022/10/31 03:51:34;;;;;;;175.35;49.15;;;;;;;;;;4990605;28;20058;-42
2022/10/31 03:54:07;;;;;;;108.88;37.58;;;;;;;;;;4980728;28;20046;-42
2022/10/31 03:56:36;;;;;;;156.02;41.47;;;;;;;;;;4986195;28;20105;-42
2022/10/31 03:59:09;;;;;;;102.03;39.22;;;;;;;;;;4991343;28;20069;-42
2022/10/31 04:01:38;;;;;;;141.93;44.05;;;;;;;;;;4973642;28;20490;-42
2022/10/31 04:04:06;;;;;;;177.63;50.58;;;;;;;;;;4989986;28;20065;-43
2022/10/31 04:06:34;;;;;;;225.13;52.60;;;;;;;;;;4989837;28;20054;-42
2022/10/31 04:09:03;;;;;;;194.45;51.13;;;;;;;;;;4991215;28;20035;-42
2022/10/31 04:11:32;;;;;;;144.52;45.65;;;;;;;;;;4990105;28;20454;-42
2022/10/31 04:14:17;;;;;;;233.80;53.25;;;;;;;;;;4990090;28;20049;-42
2022/10/31 04:16:45;;;;;;;235.45;55.35;;;;;;;;;;4988797;28;20498;-42
2022/10/31 04:19:12;;;;;;;388.90;73.95;;;;;;;;;;4973261;28;20061;-42
2022/10/31 04:21:38;;;;;;;162.80;50.00;;;;;;;;;;4995660;28;20046;-42
2022/10/31 04:24:05;;;;;;;171.57;49.50;;;;;;;;;;4986238;28;20479;-42
2022/10/31 04:26:32;;;;;;;154.73;47.53;;;;;;;;;;4990259;28;20050;-43
2022/10/31 04:28:58;;;;;;;317.77;63.17;;;;;;;;;;4990593;28;20049;-42
2022/10/31 04:31:26;;;;;;;224.90;58.20;;;;;;;;;;4988229;28;20035;-42
2022/10/31 04:33:53;;;;;;;210.50;55.13;;;;;;;;;;4990268;28;20403;-42
2022/10/31 04:36:20;;;;;;;305.23;66.90;;;;;;;;;;4989282;28;20046;-42
2022/10/31 04:38:47;;;;;;;181.60;53.45;;;;;;;;;;4989448;28;20117;-42
2022/10/31 04:41:31;;;;;;;143.57;51.88;;;;;;;;;;4988627;28;20038;-42
2022/10/31 04:44:00;;;;;;;147.57;50.83;;;;;;;;;;4972161;28;20046;-42
2022/10/31 04:46:27;;;;;;;114.18;43.42;;;;;;;;;;4986992;28;20470;-42
2022/10/31 04:48:55;;;;;;;99.80;35.42;;;;;;;;;;4988805;28;20038;-42
2022/10/31 04:51:22;;;;;;;132.07;41.95;;;;;;;;;;4988899;28;20145;-42
2022/10/31 04:53:49;;;;;;;87.07;33.65;;;;;;;;;;4973608;28;20046;-42
2022/10/31 04:56:31;;;;;;;94.82;36.67;;;;;;;;;;4990354;28;20050;-42
2022/10/31 04:59:01;;;;;;;87.95;33.95;;;;;;;;;;4989873;28;20042;-42
2022/10/31 05:01:37;;;;;;;83.82;32.95;;;;;;;;;;4972510;28;20049;-42
2022/10/31 05:04:04;;;;;;;94.97;35.10;;;;;;;;;;4990382;28;20110;-42
2022/10/31 05:06:31;;;;;;;101.93;37.35;;;;;;;;;;4988454;28;20042;-42
2022/10/31 05:08:58;;;;;;;85.70;33.95;;;;;;;;;;4972999;28;20046;-42
2022/10/31 05:11:25;;;;;;;114.18;38.03;;;;;;;;;;4987791;28;20038;-42
2022/10/31 05:13:54;;;;;;;107.78;39.00;;;;;;;;;;4984666;28;20081;-42
2022/10/31 05:16:39;;;;;;;111.82;40.65;;;;;;;;;;4983859;28;20057;-42
2022/10/31 05:19:24;;;;;;;123.65;41.30;;;;;;;;;;4990075;28;20588;-42
2022/10/31 05:22:19;;;;;;;129.45;41.63;;;;;;;;;;4989275;28;20045;-42
2022/10/31 05:24:46;;;;;;;89.03;35.65;;;;;;;;;;4989920;28;20046;-42
2022/10/31 05:27:12;;;;;;;110.88;39.22;;;;;;;;;;4988708;28;20702;-42
2022/10/31 05:29:39;;;;;;;97.30;39.20;;;;;;;;;;4989678;28;20490;-41
2022/10/31 05:32:05;;;;;;;102.05;35.92;;;;;;;;;;4989512;28;20047;-42
2022/10/31 05:34:50;;;;;;;91.82;34.88;;;;;;;;;;4989832;28;20618;-42
2022/10/31 05:37:36;;;;;;;102.38;38.35;;;;;;;;;;4988159;28;20132;-42
2022/10/31 05:40:03;;;;;;;115.30;42.22;;;;;;;;;;4965417;28;20042;-42
2022/10/31 05:42:34;;;;;;;105.43;39.60;;;;;;;;;;4988327;28;20046;-42
2022/10/31 05:45:01;;;;;;;121.55;41.55;;;;;;;;;;4988650;28;20030;-39
2022/10/31 05:47:49;;;;;;;118.18;39.28;;;;;;;;;;4984681;28;20298;-45
2022/10/31 05:50:36;;;;;;;136.03;43.10;;;;;;;;;;4978982;28;20058;-45
2022/10/31 05:53:08;;;;;;;105.47;38.63;;;;;;;;;;4987680;28;20054;-44
2022/10/31 05:55:36;;;;;;;110.00;36.10;;;;;;;;;;4987029;28;20045;-45
2022/10/31 05:58:09;;;;;;;102.22;36.50;;;;;;;;;;4988104;28;20077;-45
2022/10/31 06:00:36;;;;;;;120.32;38.63;;;;;;;;;;4988062;28;20048;-44
2022/10/31 06:03:08;;;;;;;126.85;44.15;;;;;;;;;;4988765;28;20043;-44
2022/10/31 06:05:52;;;;;;;92.18;36.97;;;;;;;;;;4970934;28;20075;-44
2022/10/31 06:08:24;;;;;;;92.80;36.55;;;;;;;;;;4984096;28;20174;-44
2022/10/31 06:10:52;;;;;;;101.10;36.30;;;;;;;;;;4984836;28;20046;-45
2022/10/31 06:13:29;;;;;;;110.25;37.42;;;;;;;;;;4975111;28;20409;-44
2022/10/31 06:16:04;;;;;;;101.93;38.00;;;;;;;;;;4975398;28;20042;-45
2022/10/31 06:18:35;;;;;;;120.88;38.88;;;;;;;;;;4991583;28;20457;-44
2022/10/31 06:21:01;;;;;;;76.57;33.17;;;;;;;;;;4992485;28;20074;-45
2022/10/31 06:23:28;;;;;;;99.88;36.47;;;;;;;;;;4991054;28;20054;-45
2022/10/31 06:26:14;;;;;;;102.40;33.05;;;;;;;;;;4992272;28;20454;-44
2022/10/31 06:28:41;;;;;;;99.68;32.30;;;;;;;;;;4974541;28;20487;-45
2022/10/31 06:31:16;;;;;;;99.93;30.70;;;;;;;;;;4991178;28;20108;-44
2022/10/31 06:33:42;;;;;;;132.80;37.03;;;;;;;;;;4991464;28;20038;-46
2022/10/31 06:36:09;;;;;;;85.70;29.25;;;;;;;;;;4992814;28;20105;-46
2022/10/31 06:38:36;;;;;;;116.70;35.67;;;;;;;;;;4992892;28;20525;-44
2022/10/31 06:41:06;;;;;;;237.98;42.70;;;;;;;;;;4974669;28;20570;-45
2022/10/31 06:43:42;;;;;;;129.05;34.90;;;;;;;;;;4974838;28;20458;-43
2022/10/31 06:46:28;;;;;;;253.63;47.88;;;;;;;;;;4990936;28;20072;-45
2022/10/31 06:49:06;;;;;;;192.88;43.65;;;;;;;;;;4990860;28;20050;-44
2022/10/31 06:51:41;;;;;;;136.50;31.95;;;;;;;;;;4974718;28;20046;-45
2022/10/31 06:54:07;;;;;;;126.22;35.45;;;;;;;;;;4992520;28;20315;-44
2022/10/31 06:56:35;;;;;;;122.45;32.38;;;;;;;;;;4991183;28;20046;-44
2022/10/31 06:59:02;;;;;;;96.22;31.13;;;;;;;;;;4990940;28;20112;-44
2022/10/31 07:01:58;;;;;;;108.22;33.97;;;;;;;;;;4982023;28;20051;-44
2022/10/31 07:04:25;;;;;;;97.05;34.28;;;;;;;;;;4990461;28;20492;-45
2022/10/31 07:06:52;;;;;;;99.13;35.90;;;;;;;;;;4990488;28;20085;-45
2022/10/31 07:09:19;;;;;;;104.40;36.35;;;;;;;;;;4990614;28;20513;-45
2022/10/31 07:11:46;;;;;;;92.97;32.63;;;;;;;;;;4991146;28;20053;-43
2022/10/31 07:14:13;;;;;;;133.95;41.38;;;;;;;;;;4990501;28;20045;-44
2022/10/31 07:16:40;;;;;;;110.53;36.67;;;;;;;;;;4990181;28;20038;-45
2022/10/31 07:19:07;;;;;;;88.90;31.10;;;;;;;;;;4990811;28;20039;-44
2022/10/31 07:21:34;;;;;;;96.90;32.55;;;;;;;;;;4989875;28;20034;-44
2022/10/31 07:24:00;;;;;;;72.05;28.92;;;;;;;;;;4987419;28;20502;-46
2022/10/31 07:26:42;;;;;;;78.20;27.77;;;;;;;;;;4991047;28;20141;-45
2022/10/31 07:29:09;;;;;;;105.50;32.20;;;;;;;;;;4990926;28;20053;-46
2022/10/31 07:31:36;;;;;;;82.55;29.55;;;;;;;;;;4989742;28;20434;-46
2022/10/31 07:34:09;;;;;;;77.88;28.48;;;;;;;;;;4989948;28;20047;-45
2022/10/31 07:36:54;;;;;;;60.08;23.33;;;;;;;;;;4991584;28;20702;-44
2022/10/31 07:39:21;;;;;;;65.82;21.70;;;;;;;;;;4987759;28;20137;-45
2022/10/31 07:41:47;;;;;;;53.70;20.70;;;;;;;;;;4991684;28;20061;-44
2022/10/31 07:44:17;;;;;;;62.38;21.92;;;;;;;;;;4991115;28;20031;-45
2022/10/31 07:47:22;;;;;;;49.55;19.35;;;;;;;;;;4962949;28;20508;-45
2022/10/31 07:50:07;;;;;;;61.85;22.02;;;;;;;;;;4963983;28;20043;-44
2022/10/31 07:53:04;;;;;;;49.60;19.70;;;;;;;;;;4951560;28;20154;-44
2022/10/31 07:55:47;;;;;;;57.38;20.08;;;;;;;;;;4948191;28;20050;-44
2022/10/31 07:58:14;;;;;;;65.35;20.55;;;;;;;;;;4964291;28;20039;-45
2022/10/31 08:00:42;;;;;;;52.63;19.42;;;;;;;;;;4964759;28;20047;-44
2022/10/31 08:03:14;;;;;;;47.30;17.83;;;;;;;;;;4952768;28;20074;-45
2022/10/31 08:05:59;;;;;;;54.72;20.15;;;;;;;;;;4968331;28;20066;-44
2022/10/31 08:09:01;;;;;;;51.65;19.58;;;;;;;;;;4968218;28;20046;-45
2022/10/31 08:11:27;;;;;;;42.88;18.50;;;;;;;;;;4964377;28;20047;-45
2022/10/31 08:13:54;;;;;;;50.92;19.08;;;;;;;;;;4964453;28;20074;-45
2022/10/31 08:16:20;;;;;;;63.00;20.52;;;;;;;;;;4957341;28;20091;-48
2022/10/31 08:18:55;;;;;;;46.13;17.55;;;;;;;;;;4984183;28;20050;-44
2022/10/31 08:21:22;;;;;;;56.88;18.67;;;;;;;;;;4989184;28;20038;-44
2022/10/31 08:23:49;;;;;;;55.28;17.77;;;;;;;;;;4972725;28;20058;-45
2022/10/31 08:26:18;;;;;;;46.83;17.92;;;;;;;;;;4990006;28;20142;-45
2022/10/31 08:28:44;;;;;;;52.85;17.83;;;;;;;;;;4988551;28;20061;-46
2022/10/31 08:31:12;;;;;;;65.45;19.73;;;;;;;;;;4988852;28;20433;-47
2022/10/31 08:33:38;;;;;;;49.40;16.98;;;;;;;;;;4988719;28;20097;-45
2022/10/31 08:36:23;;;;;;;72.10;19.98;;;;;;;;;;4990443;28;20105;-46
2022/10/31 08:38:58;;;;;;;41.30;17.52;;;;;;;;;;4991049;28;20034;-46
2022/10/31 08:41:28;;;;;;;40.03;15.95;;;;;;;;;;4988926;28;20054;-44
2022/10/31 08:43:55;;;;;;;51.10;17.88;;;;;;;;;;4972703;28;20138;-46
2022/10/31 08:46:21;;;;;;;52.40;16.42;;;;;;;;;;4990301;28;20746;-43
2022/10/31 08:48:49;;;;;;;39.33;14.43;;;;;;;;;;4990348;28;20042;-45
2022/10/31 08:51:17;;;;;;;53.80;16.25;;;;;;;;;;4989142;28;20043;-44
2022/10/31 08:53:44;;;;;;;48.58;16.50;;;;;;;;;;4989902;28;20073;-43
2022/10/31 08:56:33;;;;;;;34.03;14.10;;;;;;;;;;4968210;28;20062;-48
2022/10/31 08:59:03;;;;;;;44.58;16.38;;;;;;;;;;4951763;28;20038;-43
2022/10/31 09:01:45;;;;;;;51.03;16.10;;;;;;;;;;4951611;28;20116;-46
2022/10/31 09:04:13;;;;;;;39.60;14.93;;;;;;;;;;4951861;28;20121;-43
2022/10/31 09:06:40;;;;;;;36.75;14.15;;;;;;;;;;4967403;28;20078;-44
2022/10/31 09:09:21;;;;;;;43.53;14.57;;;;;;;;;;4965312;28;20138;-45
2022/10/31 09:11:47;;;;;;;31.40;13.55;;;;;;;;;;4968676;28;20150;-46
2022/10/31 09:14:17;;;;;;;60.92;15.45;;;;;;;;;;4967796;28;20051;-43
2022/10/31 09:17:09;;;;;;;46.63;15.30;;;;;;;;;;4971394;28;20620;-43
2022/10/31 09:19:54;;;;;;;46.38;14.93;;;;;;;;;;4967858;28;20043;-45
2022/10/31 09:22:25;;;;;;;53.30;17.58;;;;;;;;;;4967383;28;20054;-43
2022/10/31 09:24:52;;;;;;;56.55;16.23;;;;;;;;;;4973841;28;20043;-44
2022/10/31 09:27:18;;;;;;;39.25;15.02;;;;;;;;;;4967751;28;20055;-44
2022/10/31 09:29:46;;;;;;;43.42;14.15;;;;;;;;;;4968257;28;20050;-43
2022/10/31 09:32:13;;;;;;;55.97;15.70;;;;;;;;;;4967579;28;20046;-44
2022/10/31 09:34:44;;;;;;;37.42;13.90;;;;;;;;;;4946886;28;20070;-43
2022/10/31 09:37:14;;;;;;;54.13;15.00;;;;;;;;;;4964041;28;20102;-41
2022/10/31 09:39:41;;;;;;;36.75;13.02;;;;;;;;;;4952954;28;20055;-45
2022/10/31 09:42:31;;;;;;;49.35;13.02;;;;;;;;;;4951786;28;20051;-45
2022/10/31 09:45:10;;;;;;;32.00;12.52;;;;;;;;;;4970732;28;20090;-43
2022/10/31 09:47:55;;;;;;;54.85;14.15;;;;;;;;;;4968821;28;20043;-45
2022/10/31 09:50:47;;;;;;;30.63;12.05;;;;;;;;;;4970854;28;20050;-44
2022/10/31 09:53:32;;;;;;;26.30;10.82;;;;;;;;;;4977849;28;20061;-45
2022/10/31 09:56:00;;;;;;;37.22;12.48;;;;;;;;;;4992149;28;20048;-44
2022/10/31 09:58:29;;;;;;;45.83;13.60;;;;;;;;;;4975757;28;20065;-43
2022/10/31 10:01:01;;;;;;;28.15;11.32;;;;;;;;;;4976437;28;20491;-46
2022/10/31 10:03:43;;;;;;;37.17;12.57;;;;;;;;;;4992115;28;20125;-44
2022/10/31 10:06:32;;;;;;;35.70;12.52;;;;;;;;;;4991629;28;20113;-46
2022/10/31 10:09:24;;;;;;;30.60;11.50;;;;;;;;;;4990392;28;20093;-47
2022/10/31 10:12:19;;;;;;;35.83;10.70;;;;;;;;;;4992347;28;20105;-46
2022/10/31 10:14:48;;;;;;;26.45;9.82;;;;;;;;;;4993049;28;20060;-46
2022/10/31 10:17:50;;;;;;;48.42;12.32;;;;;;;;;;4992787;28;20490;-46
2022/10/31 10:20:26;;;;;;;36.50;11.27;;;;;;;;;;4936104;29;20535;-46
2022/10/31 10:22:59;;;;;;;28.75;8.70;;;;;;;;;;4935591;29;20051;-44
2022/10/31 10:25:31;;;;;;;23.90;9.05;;;;;;;;;;4936781;29;20098;-45
2022/10/31 10:28:13;;;;;;;31.65;10.27;;;;;;;;;;4936283;29;20134;-45
2022/10/31 10:30:42;;;;;;;30.10;9.82;;;;;;;;;;4936028;29;20071;-43
2022/10/31 10:33:13;;;;;;;47.72;11.18;;;;;;;;;;4932973;29;20050;-47
2022/10/31 10:35:49;;;;;;;25.30;9.35;;;;;;;;;;4933226;29;20099;-42
2022/10/31 10:38:21;;;;;;;42.30;11.05;;;;;;;;;;4935842;29;20067;-42
2022/10/31 10:40:48;;;;;;;24.20;8.27;;;;;;;;;;4936648;29;20094;-45
2022/10/31 10:43:22;;;;;;;41.42;9.80;;;;;;;;;;4936542;29;20126;-45
2022/10/31 10:48:58;;;;;;;30.98;10.13;;;;;;;;;;4936054;29;20066;-43
2022/10/31 10:51:46;;;;;;;49.22;12.30;;;;;;;;;;4933798;29;20089;-47
2022/10/31 10:54:36;;;;;;;36.70;9.40;;;;;;;;;;4958146;28;20047;-43
2022/10/31 10:57:21;;;;;;;21.25;8.52;;;;;;;;;;4992583;28;20405;-45
2022/10/31 10:59:48;;;;;;;26.33;8.60;;;;;;;;;;4993105;28;20457;-46
2022/10/31 11:02:19;;;;;;;46.33;11.43;;;;;;;;;;4992189;28;20402;-45
2022/10/31 11:04:53;;;;;;;37.65;10.60;;;;;;;;;;4992476;28;20046;-49
2022/10/31 11:07:20;;;;;;;34.15;9.68;;;;;;;;;;4991658;28;20065;-44
2022/10/31 11:09:47;;;;;;;28.58;8.20;;;;;;;;;;4991984;28;20494;-47
2022/10/31 11:12:19;;;;;;;29.10;8.52;;;;;;;;;;4992231;28;20100;-45
2022/10/31 11:14:55;;;;;;;45.38;9.48;;;;;;;;;;4991750;28;20056;-46
2022/10/31 11:17:36;;;;;;;35.38;7.90;;;;;;;;;;4992075;28;20038;-45
2022/10/31 11:20:21;;;;;;;23.73;7.18;;;;;;;;;;4992422;28;20498;-44
2022/10/31 11:22:48;;;;;;;26.35;7.63;;;;;;;;;;4991773;28;20042;-44
2022/10/31 11:25:22;;;;;;;36.03;9.65;;;;;;;;;;4991911;28;20042;-46
2022/10/31 11:28:03;;;;;;;30.38;8.50;;;;;;;;;;4992291;28;20053;-46
2022/10/31 11:30:35;;;;;;;29.85;8.85;;;;;;;;;;4991994;28;20050;-45
2022/10/31 11:33:01;;;;;;;23.33;7.22;;;;;;;;;;4992223;28;20031;-46
2022/10/31 11:35:29;;;;;;;23.33;7.18;;;;;;;;;;4991790;28;20046;-44
2022/10/31 11:37:58;;;;;;;21.65;7.53;;;;;;;;;;4991371;28;20085;-45
2022/10/31 11:40:26;;;;;;;30.58;8.90;;;;;;;;;;4991422;28;20510;-46
2022/10/31 11:42:54;;;;;;;36.58;10.23;;;;;;;;;;4992013;28;20069;-45
2022/10/31 11:45:23;;;;;;;40.35;9.48;;;;;;;;;;4991731;28;20046;-46
2022/10/31 11:47:52;;;;;;;41.90;10.30;;;;;;;;;;4992115;28;20166;-44
2022/10/31 11:50:26;;;;;;;30.05;9.82;;;;;;;;;;4991428;28;20039;-45
2022/10/31 11:52:53;;;;;;;22.88;8.27;;;;;;;;;;4990984;28;20046;-46
2022/10/31 11:55:32;;;;;;;23.95;8.80;;;;;;;;;;4991300;28;20045;-44
2022/10/31 11:57:58;;;;;;;28.52;9.00;;;;;;;;;;4991517;28;20049;-44
2022/10/31 12:00:30;;;;;;;50.45;11.57;;;;;;;;;;4991022;28;20053;-45
2022/10/31 12:03:09;;;;;;;33.33;10.13;;;;;;;;;;4992165;28;20112;-45
2022/10/31 12:05:36;;;;;;;32.97;10.65;;;;;;;;;;4991334;28;21021;-44
2022/10/31 12:08:03;;;;;;;36.05;9.85;;;;;;;;;;4989716;28;20054;-45
2022/10/31 12:10:39;;;;;;;41.65;11.90;;;;;;;;;;4990943;28;20050;-47
2022/10/31 12:13:05;;;;;;;37.38;11.57;;;;;;;;;;4990987;28;20114;-45
2022/10/31 12:15:33;;;;;;;42.85;11.93;;;;;;;;;;4991073;28;20046;-46
2022/10/31 12:18:24;;;;;;;29.35;10.30;;;;;;;;;;4991745;28;20038;-46
2022/10/31 12:20:59;;;;;;;53.03;13.30;;;;;;;;;;4991259;28;20046;-48
2022/10/31 12:23:25;;;;;;;40.63;11.98;;;;;;;;;;4990799;28;20084;-46
2022/10/31 12:26:00;;;;;;;36.88;11.48;;;;;;;;;;4990816;28;20038;-46
2022/10/31 12:28:36;;;;;;;29.85;10.50;;;;;;;;;;4990681;28;20056;-44
2022/10/31 12:31:10;;;;;;;25.52;10.02;;;;;;;;;;4990600;28;20126;-44
2022/10/31 12:33:36;;;;;;;43.90;12.45;;;;;;;;;;4990747;28;20034;-44
2022/10/31 12:36:21;;;;;;;32.20;12.30;;;;;;;;;;4991122;28;20487;-44
2022/10/31 12:38:58;;;;;;;31.60;11.52;;;;;;;;;;4991308;28;20054;-46
2022/10/31 12:41:28;;;;;;;37.95;11.32;;;;;;;;;;4990359;28;20049;-46
2022/10/31 12:43:57;;;;;;;53.45;14.07;;;;;;;;;;4990173;28;20522;-45
2022/10/31 12:46:32;;;;;;;36.03;13.05;;;;;;;;;;4990244;28;20538;-45
2022/10/31 12:49:05;;;;;;;35.25;11.88;;;;;;;;;;4990524;28;20043;-45
2022/10/31 12:51:43;;;;;;;40.70;12.80;;;;;;;;;;4990950;28;20108;-44
2022/10/31 12:54:33;;;;;;;100.28;17.65;;;;;;;;;;4990707;28;20554;-46
2022/10/31 12:57:06;;;;;;;30.63;11.98;;;;;;;;;;4982491;28;20100;-44
2022/10/31 12:59:39;;;;;;;38.20;12.10;;;;;;;;;;4990402;28;20042;-44
2022/10/31 13:02:11;;;;;;;33.72;12.30;;;;;;;;;;4990216;28;20125;-46
2022/10/31 13:04:42;;;;;;;37.47;12.75;;;;;;;;;;4990209;28;20101;-46
2022/10/31 13:07:15;;;;;;;47.30;13.35;;;;;;;;;;4989554;28;20069;-44
2022/10/31 13:09:48;;;;;;;39.33;13.00;;;;;;;;;;4990114;28;20510;-47
2022/10/31 13:12:18;;;;;;;39.38;12.27;;;;;;;;;;4991053;28;20077;-45
2022/10/31 13:14:53;;;;;;;36.30;12.15;;;;;;;;;;4989934;28;20050;-45
2022/10/31 13:17:26;;;;;;;42.40;13.15;;;;;;;;;;4990171;28;20720;-44
2022/10/31 13:19:55;;;;;;;37.97;12.70;;;;;;;;;;4989735;28;20043;-48
2022/10/31 13:22:24;;;;;;;59.10;16.02;;;;;;;;;;4989650;28;20727;-45
2022/10/31 13:25:02;;;;;;;33.97;11.85;;;;;;;;;;4990058;28;20069;-44
2022/10/31 13:27:48;;;;;;;35.90;12.27;;;;;;;;;;4990212;28;20506;-44
2022/10/31 13:30:20;;;;;;;52.22;14.00;;;;;;;;;;4990092;28;20453;-44
2022/10/31 13:32:50;;;;;;;38.33;12.05;;;;;;;;;;4990778;28;20045;-43
2022/10/31 13:35:22;;;;;;;38.30;12.32;;;;;;;;;;4989763;28;20042;-45
2022/10/31 13:38:12;;;;;;;27.40;10.65;;;;;;;;;;4989594;28;20097;-43
2022/10/31 13:40:38;;;;;;;21.15;9.95;;;;;;;;;;4981997;28;20101;-44
2022/10/31 13:43:18;;;;;;;43.67;12.05;;;;;;;;;;4989694;28;20522;-44
2022/10/31 13:45:49;;;;;;;46.90;13.73;;;;;;;;;;4989921;28;20534;-45
2022/10/31 13:48:16;;;;;;;42.90;11.05;;;;;;;;;;4990530;28;20133;-44
2022/10/31 13:50:54;;;;;;;47.58;11.90;;;;;;;;;;4990135;28;20052;-44
2022/10/31 13:53:21;;;;;;;44.53;13.70;;;;;;;;;;4989680;28;20079;-45
2022/10/31 13:55:49;;;;;;;35.67;14.23;;;;;;;;;;4989688;28;20076;-44
2022/10/31 13:58:24;;;;;;;52.63;12.50;;;;;;;;;;4989271;28;20509;-44
2022/10/31 14:01:17;;;;;;;37.33;12.10;;;;;;;;;;4989710;28;20058;-43
2022/10/31 14:03:45;;;;;;;44.27;10.97;;;;;;;;;;4987083;28;20430;-44
2022/10/31 14:06:56;;;;;;;71.50;13.50;;;;;;;;;;4987082;28;20046;-44
2022/10/31 14:09:30;;;;;;;40.83;10.77;;;;;;;;;;4978637;28;20054;-44
2022/10/31 14:11:59;;;;;;;45.85;11.45;;;;;;;;;;4989877;28;20114;-44
2022/10/31 14:14:29;;;;;;;34.05;9.25;;;;;;;;;;4989470;28;20046;-44
2022/10/31 14:16:56;;;;;;;29.83;9.80;;;;;;;;;;4989504;28;20405;-45
2022/10/31 14:19:24;;;;;;;45.88;11.18;;;;;;;;;;4989478;28;20038;-45
2022/10/31 14:21:51;;;;;;;38.63;9.70;;;;;;;;;;4989487;28;20038;-44
2022/10/31 14:24:23;;;;;;;42.72;10.13;;;;;;;;;;4988158;28;20076;-44
2022/10/31 14:26:52;;;;;;;29.23;10.25;;;;;;;;;;4990410;28;20507;-46
2022/10/31 14:29:21;;;;;;;32.72;9.98;;;;;;;;;;4989224;28;20062;-45
2022/10/31 14:31:51;;;;;;;34.83;11.02;;;;;;;;;;4991540;28;20108;-45
2022/10/31 14:34:22;;;;;;;41.90;11.85;;;;;;;;;;4992744;28;20474;-46
2022/10/31 14:37:08;;;;;;;40.25;13.65;;;;;;;;;;4993023;28;20041;-43
2022/10/31 14:39:49;;;;;;;43.88;13.77;;;;;;;;;;4993238;28;20085;-44
2022/10/31 14:42:21;;;;;;;38.42;11.88;;;;;;;;;;4993545;28;20038;-47
2022/10/31 14:44:53;;;;;;;29.88;10.73;;;;;;;;;;4993360;28;20046;-44
2022/10/31 14:47:24;;;;;;;36.65;11.13;;;;;;;;;;4992782;28;20046;-44
2022/10/31 14:50:04;;;;;;;45.58;11.60;;;;;;;;;;4992475;28;20122;-44
2022/10/31 14:52:31;;;;;;;31.05;9.98;;;;;;;;;;4992343;28;20042;-45